Time;durP1;ratioP1;P1;durP2;ratioP2;P2;SDS_P1;SDS_P2;PMS_P1;PMS_P2;Temp;Humidity;BMP_temperature;BMP_pressure;BME280_temperature;BME280_humidity;BME280_pressure;Samples;Min_cycle;Max_cycle;Signal;HPM_P1;HPM_P2
2021/03/11 00:01:32;;;;;;;24.65;11.75;;;5.10;99.90;;;;;;5012697;28;20049;-76
2021/03/11 00:03:59;;;;;;;27.48;11.82;;;5.10;99.90;;;;;;5032823;28;20045;-76
2021/03/11 00:06:26;;;;;;;27.48;12.15;;;5.20;99.90;;;;;;5016107;28;20482;-76
2021/03/11 00:08:53;;;;;;;28.67;12.60;;;5.10;99.90;;;;;;5034089;28;20053;-76
2021/03/11 00:11:20;;;;;;;26.75;11.65;;;5.10;99.90;;;;;;5034746;28;20045;-75
2021/03/11 00:13:47;;;;;;;28.77;12.88;;;5.20;99.90;;;;;;5030582;28;20068;-76
2021/03/11 00:16:15;;;;;;;26.65;11.48;;;5.30;99.90;;;;;;5033736;28;20049;-76
2021/03/11 00:18:42;;;;;;;26.00;12.30;;;5.30;99.90;;;;;;5029624;28;20415;-76
2021/03/11 00:21:10;;;;;;;25.30;11.60;;;5.30;99.90;;;;;;5005530;28;20379;-77
2021/03/11 00:23:37;;;;;;;27.25;12.38;;;5.30;99.90;;;;;;5022164;28;20058;-76
2021/03/11 00:26:04;;;;;;;27.08;12.05;;;5.30;99.90;;;;;;5029173;28;20383;-76
2021/03/11 00:28:31;;;;;;;26.00;12.60;;;5.30;99.90;;;;;;5016461;28;20053;-76
2021/03/11 00:30:58;;;;;;;26.67;11.90;;;5.20;99.90;;;;;;5017040;28;20057;-77
2021/03/11 00:33:29;;;;;;;24.42;11.35;;;5.30;99.90;;;;;;4999391;28;20057;-76
2021/03/11 00:35:56;;;;;;;24.15;11.43;;;5.30;99.90;;;;;;5002638;28;20054;-77
2021/03/11 00:38:23;;;;;;;26.30;11.57;;;5.30;99.90;;;;;;5013649;28;20054;-76
2021/03/11 00:40:51;;;;;;;29.33;12.70;;;5.30;99.90;;;;;;5014699;28;20054;-77
2021/03/11 00:43:20;;;;;;;25.35;11.48;;;5.30;99.90;;;;;;5024251;28;20053;-76
2021/03/11 00:45:49;;;;;;;28.38;12.15;;;5.40;99.90;;;;;;5008528;28;20400;-75
2021/03/11 00:48:16;;;;;;;25.88;11.45;;;5.40;99.90;;;;;;5010951;28;20467;-75
2021/03/11 00:50:45;;;;;;;25.13;11.63;;;5.40;99.90;;;;;;5013485;28;20049;-76
2021/03/11 00:53:12;;;;;;;26.10;11.88;;;5.40;99.90;;;;;;5029980;28;20383;-76
2021/03/11 00:55:41;;;;;;;25.98;12.68;;;5.40;99.90;;;;;;5013405;28;20054;-77
2021/03/11 00:58:08;;;;;;;29.48;11.82;;;5.50;99.90;;;;;;5014460;28;20058;-77
2021/03/11 01:00:38;;;;;;;25.70;11.88;;;5.50;99.90;;;;;;5029803;28;20053;-75
2021/03/11 01:03:10;;;;;;;23.42;11.10;;;5.50;99.90;;;;;;5013538;28;20053;-76
2021/03/11 01:05:49;;;;;;;25.05;12.05;;;5.60;99.90;;;;;;5022602;28;20061;-76
2021/03/11 01:08:28;;;;;;;23.63;11.65;;;5.60;99.90;;;;;;4996953;28;20054;-75
2021/03/11 01:10:55;;;;;;;29.50;12.70;;;5.70;99.90;;;;;;5015685;28;20049;-76
2021/03/11 01:13:26;;;;;;;23.85;11.77;;;5.60;99.90;;;;;;5013388;28;20061;-76
2021/03/11 01:15:55;;;;;;;27.48;11.77;;;5.70;99.90;;;;;;5029449;28;20050;-75
2021/03/11 01:18:23;;;;;;;27.20;11.93;;;5.70;99.90;;;;;;5012916;28;20069;-76
2021/03/11 01:20:54;;;;;;;23.52;12.60;;;5.70;99.90;;;;;;5014169;28;20135;-76
2021/03/11 01:23:21;;;;;;;27.08;11.60;;;5.70;99.90;;;;;;5013323;28;20057;-77
2021/03/11 01:25:48;;;;;;;24.88;11.40;;;5.70;99.90;;;;;;5022724;28;20060;-76
2021/03/11 01:28:18;;;;;;;27.27;11.68;;;5.70;99.90;;;;;;5015713;28;20069;-77
2021/03/11 01:30:46;;;;;;;23.17;11.15;;;5.80;99.90;;;;;;5012839;28;20490;-76
2021/03/11 01:33:15;;;;;;;23.55;11.77;;;5.80;99.90;;;;;;5014140;28;20530;-75
2021/03/11 01:35:50;;;;;;;26.85;11.75;;;5.80;99.90;;;;;;5008619;28;20463;-76
2021/03/11 01:38:20;;;;;;;28.10;12.57;;;5.80;99.90;;;;;;5011703;28;20057;-76
2021/03/11 01:40:48;;;;;;;25.77;11.68;;;5.90;99.90;;;;;;5029816;28;20487;-76
2021/03/11 01:43:15;;;;;;;21.85;11.40;;;6.00;99.90;;;;;;5001924;28;20056;-77
2021/03/11 01:45:42;;;;;;;27.23;11.98;;;5.90;99.90;;;;;;5015133;28;20069;-79
2021/03/11 01:48:10;;;;;;;26.40;12.63;;;6.00;99.90;;;;;;5015337;28;20050;-79
2021/03/11 01:50:37;;;;;;;25.10;11.30;;;6.10;99.90;;;;;;5015168;28;20062;-79
2021/03/11 01:53:04;;;;;;;20.48;10.00;;;6.10;99.90;;;;;;4996422;28;20464;-79
2021/03/11 01:55:33;;;;;;;24.77;10.82;;;6.20;99.90;;;;;;5008807;28;20050;-79
2021/03/11 01:58:01;;;;;;;21.45;10.82;;;6.20;99.90;;;;;;4999084;28;20057;-79
2021/03/11 02:00:28;;;;;;;21.83;10.73;;;6.30;99.90;;;;;;5006207;28;20064;-79
2021/03/11 02:02:56;;;;;;;19.00;8.50;;;6.30;99.90;;;;;;5004832;28;20054;-79
2021/03/11 02:05:26;;;;;;;22.92;9.15;;;6.40;99.90;;;;;;5008151;28;20054;-79
2021/03/11 02:07:53;;;;;;;25.13;10.50;;;6.40;99.90;;;;;;5022283;28;20126;-79
2021/03/11 02:10:24;;;;;;;20.30;9.85;;;6.40;99.90;;;;;;5009026;28;20046;-80
2021/03/11 02:13:05;;;;;;;24.70;10.88;;;6.40;99.90;;;;;;5012833;28;20057;-80
2021/03/11 02:15:38;;;;;;;22.42;10.70;;;6.40;99.90;;;;;;5016734;28;20064;-79
2021/03/11 02:18:12;;;;;;;18.83;9.07;;;6.40;99.90;;;;;;4998228;28;20056;-79
2021/03/11 02:20:49;;;;;;;20.58;8.15;;;6.40;99.90;;;;;;4995400;28;20058;-79
2021/03/11 02:23:50;;;;;;;22.58;10.00;;;6.40;99.90;;;;;;4978467;28;20065;-79
2021/03/11 02:26:30;;;;;;;21.63;9.05;;;6.50;99.90;;;;;;4950428;28;20057;-79
2021/03/11 02:29:02;;;;;;;26.35;9.77;;;6.50;99.90;;;;;;4987995;28;20054;-79
2021/03/11 02:31:31;;;;;;;29.70;11.63;;;6.50;99.90;;;;;;5018558;28;20058;-79
2021/03/11 02:34:01;;;;;;;22.13;10.57;;;6.50;99.90;;;;;;4987870;28;20120;-79
2021/03/11 02:36:29;;;;;;;24.42;11.05;;;6.60;99.90;;;;;;5020692;28;20064;-79
2021/03/11 02:38:59;;;;;;;24.95;10.60;;;6.60;99.90;;;;;;5020162;28;20049;-79
2021/03/11 02:41:27;;;;;;;26.00;11.93;;;6.60;99.90;;;;;;5003323;28;20061;-80
2021/03/11 02:43:59;;;;;;;22.00;10.90;;;6.60;99.90;;;;;;5003556;28;20050;-80
2021/03/11 02:46:26;;;;;;;21.85;11.18;;;6.60;99.90;;;;;;5009494;28;20050;-79
2021/03/11 02:48:55;;;;;;;25.17;12.05;;;6.60;99.90;;;;;;5003195;28;20054;-80
2021/03/11 02:51:24;;;;;;;26.10;11.60;;;6.60;99.90;;;;;;4988164;28;20060;-79
2021/03/11 02:53:53;;;;;;;25.63;12.10;;;6.60;99.90;;;;;;5035968;28;20072;-79
2021/03/11 02:56:21;;;;;;;28.23;12.97;;;6.60;99.90;;;;;;5021405;28;20045;-80
2021/03/11 02:58:48;;;;;;;27.02;12.68;;;6.60;99.90;;;;;;5039314;28;20739;-79
2021/03/11 03:01:18;;;;;;;23.33;12.02;;;6.60;99.90;;;;;;5025831;28;20053;-79
2021/03/11 03:03:47;;;;;;;26.77;12.23;;;6.60;99.90;;;;;;5040634;28;20471;-80
2021/03/11 03:06:14;;;;;;;24.92;12.65;;;6.60;99.90;;;;;;5003381;28;20064;-79
2021/03/11 03:08:43;;;;;;;28.15;11.98;;;6.60;99.90;;;;;;5036338;28;20053;-79
2021/03/11 03:11:13;;;;;;;27.95;13.35;;;6.60;99.90;;;;;;5019200;28;20124;-79
2021/03/11 03:13:42;;;;;;;25.90;12.02;;;6.50;99.90;;;;;;5004111;28;20060;-79
2021/03/11 03:16:10;;;;;;;24.77;11.80;;;6.50;99.90;;;;;;5020739;28;20070;-79
2021/03/11 03:18:39;;;;;;;27.83;13.18;;;6.50;99.90;;;;;;5037576;28;20057;-79
2021/03/11 03:21:08;;;;;;;28.70;13.57;;;6.50;99.90;;;;;;5021971;28;20410;-79
2021/03/11 03:23:36;;;;;;;25.70;13.13;;;6.50;99.90;;;;;;5037792;28;20053;-79
2021/03/11 03:26:04;;;;;;;28.75;13.80;;;6.50;99.90;;;;;;5037504;28;20060;-80
2021/03/11 03:28:31;;;;;;;30.92;13.45;;;6.50;99.90;;;;;;5022267;28;20084;-79
2021/03/11 03:31:01;;;;;;;29.58;13.98;;;6.50;99.90;;;;;;5040578;28;20057;-79
2021/03/11 03:33:31;;;;;;;28.85;13.63;;;6.50;99.90;;;;;;5041130;28;20053;-79
2021/03/11 03:35:59;;;;;;;25.98;12.90;;;6.60;99.90;;;;;;5040804;28;20065;-79
2021/03/11 03:38:29;;;;;;;30.30;13.05;;;6.60;99.90;;;;;;5008175;28;20049;-78
2021/03/11 03:41:00;;;;;;;28.42;13.35;;;6.60;99.90;;;;;;5028196;28;20064;-78
2021/03/11 03:43:30;;;;;;;29.02;12.60;;;6.60;99.90;;;;;;5027366;28;20387;-78
2021/03/11 03:46:05;;;;;;;28.88;12.75;;;6.60;99.90;;;;;;5042516;28;20064;-78
2021/03/11 03:48:39;;;;;;;29.27;12.50;;;6.60;99.90;;;;;;5027240;28;20045;-78
2021/03/11 03:51:09;;;;;;;28.95;13.10;;;6.60;99.90;;;;;;5027383;28;20064;-79
2021/03/11 03:53:41;;;;;;;28.55;13.50;;;6.70;99.90;;;;;;5027066;28;20057;-80
2021/03/11 03:56:18;;;;;;;28.52;12.88;;;6.70;99.90;;;;;;5047594;28;20045;-79
2021/03/11 03:58:48;;;;;;;26.48;12.52;;;6.70;99.90;;;;;;5026335;28;20045;-79
2021/03/11 04:01:16;;;;;;;26.73;13.27;;;6.70;99.90;;;;;;5010493;28;20060;-79
2021/03/11 04:03:44;;;;;;;32.80;12.85;;;6.70;99.90;;;;;;5013588;28;20053;-78
2021/03/11 04:06:14;;;;;;;26.15;12.05;;;6.70;99.90;;;;;;4995958;28;20455;-78
2021/03/11 04:08:42;;;;;;;26.50;12.00;;;6.70;99.90;;;;;;4994440;28;20054;-78
2021/03/11 04:11:10;;;;;;;24.83;13.07;;;6.80;99.90;;;;;;5026542;28;20060;-78
2021/03/11 04:13:39;;;;;;;25.60;12.77;;;6.80;99.90;;;;;;5026380;28;20065;-79
2021/03/11 04:16:07;;;;;;;24.60;12.02;;;6.80;99.90;;;;;;5025023;28;20053;-79
2021/03/11 04:18:36;;;;;;;33.73;13.23;;;6.80;99.90;;;;;;5009728;28;20490;-78
2021/03/11 04:21:05;;;;;;;27.77;11.77;;;6.90;99.90;;;;;;5026598;28;20062;-78
2021/03/11 04:23:35;;;;;;;22.67;11.82;;;6.80;99.90;;;;;;5025148;28;20049;-78
2021/03/11 04:26:06;;;;;;;22.98;11.35;;;6.90;99.90;;;;;;5006882;28;20061;-79
2021/03/11 04:28:34;;;;;;;27.38;12.30;;;6.90;99.90;;;;;;5007486;28;20046;-80
2021/03/11 04:31:04;;;;;;;24.50;11.68;;;6.90;99.90;;;;;;5009035;28;20061;-79
2021/03/11 04:33:32;;;;;;;23.23;10.93;;;7.00;99.90;;;;;;5005435;28;20065;-79
2021/03/11 04:36:01;;;;;;;23.77;11.48;;;7.00;99.90;;;;;;4991331;28;20065;-79
2021/03/11 04:38:34;;;;;;;22.38;11.82;;;7.00;99.90;;;;;;5026200;28;20050;-79
2021/03/11 04:41:02;;;;;;;26.42;11.32;;;7.00;99.90;;;;;;5024536;28;20049;-80
2021/03/11 04:43:29;;;;;;;25.85;12.15;;;7.00;99.90;;;;;;5021448;28;20061;-80
2021/03/11 04:45:57;;;;;;;26.10;11.05;;;7.00;99.90;;;;;;5007619;28;20392;-78
2021/03/11 04:48:27;;;;;;;25.33;10.98;;;7.00;99.90;;;;;;4996540;28;20037;-79
2021/03/11 04:50:55;;;;;;;25.30;11.57;;;7.00;99.90;;;;;;5042005;28;20057;-78
2021/03/11 04:53:24;;;;;;;22.52;10.15;;;7.00;99.90;;;;;;5025022;28;20057;-79
2021/03/11 04:55:53;;;;;;;23.48;10.52;;;7.00;99.90;;;;;;5044742;28;20068;-80
2021/03/11 04:58:23;;;;;;;21.80;11.45;;;7.00;99.90;;;;;;5043419;28;20049;-79
2021/03/11 05:00:53;;;;;;;21.23;10.32;;;6.90;99.90;;;;;;5047221;28;20088;-79
2021/03/11 05:03:21;;;;;;;25.67;11.57;;;6.90;99.90;;;;;;5032964;28;20583;-78
2021/03/11 05:05:50;;;;;;;22.13;9.80;;;6.90;99.90;;;;;;5045819;28;20049;-79
2021/03/11 05:08:17;;;;;;;21.75;10.77;;;6.90;99.90;;;;;;5040727;28;20049;-79
2021/03/11 05:10:45;;;;;;;24.58;11.35;;;6.80;99.90;;;;;;5042679;28;20053;-80
2021/03/11 05:13:14;;;;;;;19.85;10.57;;;6.80;99.90;;;;;;5045777;28;20064;-79
2021/03/11 05:15:41;;;;;;;20.83;9.93;;;6.90;99.90;;;;;;5028818;28;20049;-79
2021/03/11 05:18:08;;;;;;;23.48;11.82;;;6.90;99.90;;;;;;5007775;28;20053;-79
2021/03/11 05:20:35;;;;;;;20.73;10.43;;;6.90;99.90;;;;;;5024013;28;20058;-79
2021/03/11 05:23:04;;;;;;;23.77;11.18;;;6.80;99.90;;;;;;5007279;28;20057;-79
2021/03/11 05:25:35;;;;;;;23.10;10.57;;;6.80;99.90;;;;;;5008182;28;20073;-79
2021/03/11 05:28:04;;;;;;;26.67;11.63;;;6.80;99.90;;;;;;4989393;28;20045;-79
2021/03/11 05:30:33;;;;;;;29.60;11.38;;;6.70;99.90;;;;;;5020764;28;20057;-80
2021/03/11 05:33:02;;;;;;;29.10;11.40;;;6.70;99.90;;;;;;5021512;28;20060;-79
2021/03/11 05:35:30;;;;;;;23.55;11.30;;;6.60;99.90;;;;;;5025377;28;20057;-80
2021/03/11 05:37:57;;;;;;;28.92;11.75;;;6.60;99.90;;;;;;5007693;28;20054;-80
2021/03/11 05:40:25;;;;;;;26.13;11.82;;;6.60;99.90;;;;;;5004392;28;20375;-80
2021/03/11 05:42:54;;;;;;;23.92;11.70;;;6.50;99.90;;;;;;5019162;28;20057;-80
2021/03/11 05:45:21;;;;;;;28.08;12.82;;;6.50;99.90;;;;;;5001997;28;20046;-80
2021/03/11 05:47:50;;;;;;;27.23;11.55;;;6.50;99.90;;;;;;5003125;28;20053;-79
2021/03/11 05:50:19;;;;;;;24.02;10.70;;;6.50;99.90;;;;;;5017892;28;20061;-79
2021/03/11 05:52:47;;;;;;;24.80;12.30;;;6.50;99.90;;;;;;5002745;28;20054;-79
2021/03/11 05:55:15;;;;;;;24.45;11.25;;;6.50;99.90;;;;;;5019087;28;20050;-80
2021/03/11 05:57:45;;;;;;;22.83;10.35;;;6.50;99.90;;;;;;5021917;28;20080;-80
2021/03/11 06:00:13;;;;;;;;;;;6.50;99.90;;;;;;5031049;28;20064;-79
2021/03/11 06:02:42;;;;;;;23.33;11.65;;;6.40;99.90;;;;;;5005382;28;19925;-79
2021/03/11 06:05:12;;;;;;;23.33;11.57;;;6.40;99.90;;;;;;5038468;28;20058;-80
2021/03/11 06:07:43;;;;;;;25.60;11.60;;;6.30;99.90;;;;;;5022726;28;20045;-80
2021/03/11 06:10:11;;;;;;;25.70;12.13;;;6.30;99.90;;;;;;5042422;28;20406;-80
2021/03/11 06:12:39;;;;;;;28.35;12.15;;;6.30;99.90;;;;;;5025336;28;20391;-80
2021/03/11 06:15:12;;;;;;;26.88;11.95;;;6.30;99.90;;;;;;5026767;28;20057;-79
2021/03/11 06:17:41;;;;;;;27.52;12.65;;;6.30;99.90;;;;;;5043131;28;20471;-79
2021/03/11 06:20:10;;;;;;;24.47;11.83;;;6.40;99.90;;;;;;5046900;28;20060;-79
2021/03/11 06:22:40;;;;;;;24.85;11.63;;;6.40;99.90;;;;;;5028341;28;20060;-79
2021/03/11 06:25:24;;;;;;;32.53;12.27;;;6.40;99.90;;;;;;5029847;28;20061;-80
2021/03/11 06:27:51;;;;;;;28.55;11.30;;;6.40;99.90;;;;;;5031247;28;20053;-79
2021/03/11 06:30:33;;;;;;;22.45;10.77;;;6.40;99.90;;;;;;5029912;28;20379;-79
2021/03/11 06:33:02;;;;;;;24.20;11.00;;;6.50;99.90;;;;;;5028268;28;20068;-79
2021/03/11 06:35:31;;;;;;;20.77;10.52;;;6.50;99.90;;;;;;5046235;28;20068;-81
2021/03/11 06:37:58;;;;;;;;;;;6.60;99.90;;;;;;5043679;28;20487;-81
2021/03/11 06:40:27;;;;;;;24.42;10.05;;;6.60;99.90;;;;;;5042608;28;19932;-81
2021/03/11 06:43:09;;;;;;;26.02;11.30;;;6.60;99.90;;;;;;5038862;28;20053;-81
2021/03/11 06:45:37;;;;;;;22.42;10.52;;;6.70;99.90;;;;;;5043972;28;20505;-81
2021/03/11 06:48:25;;;;;;;22.35;10.00;;;6.80;99.90;;;;;;5044553;28;20056;-81
2021/03/11 06:50:55;;;;;;;20.27;9.63;;;6.80;99.90;;;;;;5044479;28;20064;-79
2021/03/11 06:53:22;;;;;;;20.17;10.45;;;6.80;99.90;;;;;;5037083;28;20486;-79
2021/03/11 06:55:52;;;;;;;23.60;9.68;;;6.90;99.90;;;;;;5020913;28;20383;-79
2021/03/11 06:58:21;;;;;;;21.80;10.45;;;7.00;99.90;;;;;;5038097;28;20053;-79
2021/03/11 07:01:04;;;;;;;18.10;8.88;;;7.10;99.90;;;;;;5022311;28;20057;-79
2021/03/11 07:03:39;;;;;;;19.77;9.32;;;7.10;99.90;;;;;;5048980;28;20053;-81
2021/03/11 07:06:10;;;;;;;17.05;7.95;;;7.10;99.90;;;;;;5039667;28;20060;-80
2021/03/11 07:08:49;;;;;;;16.50;8.77;;;7.20;99.90;;;;;;5039360;28;20363;-81
2021/03/11 07:11:16;;;;;;;12.60;6.45;;;7.30;99.90;;;;;;5039504;28;20058;-80
2021/03/11 07:13:47;;;;;;;13.70;6.20;;;7.40;99.90;;;;;;5018343;28;20050;-80
2021/03/11 07:16:15;;;;;;;13.38;6.50;;;7.50;99.90;;;;;;5024443;28;20069;-80
2021/03/11 07:18:44;;;;;;;12.10;6.45;;;7.60;99.90;;;;;;5020288;28;20050;-80
2021/03/11 07:21:12;;;;;;;15.43;6.65;;;7.60;99.90;;;;;;5019602;28;20482;-80
2021/03/11 07:23:43;;;;;;;;;;;7.60;99.90;;;;;;5019110;28;20065;-80
2021/03/11 07:26:11;;;;;;;13.50;6.43;;;7.70;99.90;;;;;;5003388;28;20367;-80
2021/03/11 07:28:41;;;;;;;11.55;4.57;;;7.70;99.90;;;;;;5022899;28;20046;-80
2021/03/11 07:31:10;;;;;;;15.02;6.50;;;7.80;99.90;;;;;;5005722;28;20049;-80
2021/03/11 07:33:39;;;;;;;5.68;2.92;;;7.80;99.90;;;;;;5016668;28;20402;-81
2021/03/11 07:36:10;;;;;;;15.25;6.50;;;7.90;99.90;;;;;;5021651;28;20053;-80
2021/03/11 07:38:38;;;;;;;12.50;5.20;;;7.90;99.90;;;;;;5026407;28;20045;-79
2021/03/11 07:41:08;;;;;;;9.18;3.25;;;7.90;99.90;;;;;;5027440;28;20065;-80
2021/03/11 07:43:35;;;;;;;10.05;3.88;;;7.90;99.90;;;;;;5021301;28;20056;-80
2021/03/11 07:46:05;;;;;;;11.65;5.85;;;8.00;99.90;;;;;;5032289;28;20064;-80
2021/03/11 07:48:33;;;;;;;9.90;4.30;;;8.00;99.90;;;;;;5019935;28;20458;-80
2021/03/11 07:51:01;;;;;;;16.13;6.55;;;8.00;99.90;;;;;;5045857;28;20052;-80
2021/03/11 07:53:29;;;;;;;13.82;6.05;;;8.00;99.90;;;;;;5032924;28;20061;-81
2021/03/11 07:55:58;;;;;;;12.43;5.63;;;8.10;99.90;;;;;;5037061;28;20463;-80
2021/03/11 07:58:25;;;;;;;11.25;5.38;;;8.10;99.90;;;;;;5042792;28;20049;-80
2021/03/11 08:00:56;;;;;;;11.95;6.18;;;8.10;99.90;;;;;;5012066;28;20050;-80
2021/03/11 08:03:24;;;;;;;11.45;5.38;;;8.20;99.90;;;;;;5045572;28;20063;-80
2021/03/11 08:05:52;;;;;;;9.60;4.65;;;8.20;99.90;;;;;;5036104;28;20423;-81
2021/03/11 08:08:20;;;;;;;9.52;5.20;;;8.20;99.90;;;;;;5024349;28;20049;-80
2021/03/11 08:10:52;;;;;;;13.82;5.53;;;8.30;99.90;;;;;;5050916;28;20060;-80
2021/03/11 08:13:36;;;;;;;12.48;5.75;;;8.30;99.90;;;;;;5010155;28;20057;-81
2021/03/11 08:16:22;;;;;;;8.45;4.10;;;8.30;99.90;;;;;;5040882;28;20065;-80
2021/03/11 08:18:51;;;;;;;8.50;3.92;;;8.40;99.90;;;;;;5026135;28;20053;-80
2021/03/11 08:21:37;;;;;;;;;;;8.40;99.90;;;;;;5043250;28;20064;-81
2021/03/11 08:24:42;;;;;;;5.57;2.97;;;8.30;99.90;;;;;;5042078;28;19940;-80
2021/03/11 08:27:39;;;;;;;8.90;3.13;;;8.30;99.90;;;;;;5042707;28;20053;-81
2021/03/11 08:30:28;;;;;;;11.00;5.35;;;8.30;99.90;;;;;;5039366;28;20068;-81
2021/03/11 08:32:56;;;;;;;5.82;2.90;;;8.30;99.90;;;;;;5030207;28;20466;-81
2021/03/11 08:35:36;;;;;;;11.38;4.28;;;8.30;99.90;;;;;;5040119;28;20045;-81
2021/03/11 08:38:37;;;;;;;8.65;3.58;;;8.20;99.90;;;;;;5038356;28;20049;-81
2021/03/11 08:41:06;;;;;;;16.65;6.85;;;8.00;99.90;;;;;;5035798;28;20045;-81
2021/03/11 08:43:50;;;;;;;19.00;7.18;;;7.90;99.90;;;;;;5034576;28;20049;-80
2021/03/11 08:46:19;;;;;;;12.23;6.28;;;8.00;99.90;;;;;;5004355;28;20465;-81
2021/03/11 08:48:52;;;;;;;18.13;7.03;;;8.10;99.90;;;;;;5047006;28;20045;-80
2021/03/11 08:51:39;;;;;;;23.77;8.80;;;8.20;99.90;;;;;;5025294;28;20490;-81
2021/03/11 08:54:22;;;;;;;13.13;4.50;;;8.30;99.90;;;;;;5037746;28;20487;-81
2021/03/11 08:56:49;;;;;;;15.05;7.18;;;8.30;99.90;;;;;;5017190;28;20064;-80
2021/03/11 08:59:17;;;;;;;10.25;3.83;;;8.40;99.90;;;;;;5034995;28;20361;-81
2021/03/11 09:01:47;;;;;;;21.50;6.45;;;8.50;99.90;;;;;;5021141;28;20057;-80
2021/03/11 09:04:40;;;;;;;11.05;4.28;;;8.60;99.90;;;;;;5030378;28;20037;-80
2021/03/11 09:07:11;;;;;;;5.47;2.38;;;8.70;99.90;;;;;;5038953;28;20049;-80
2021/03/11 09:09:41;;;;;;;22.02;6.95;;;8.60;99.90;;;;;;5040563;28;20064;-79
2021/03/11 09:12:13;;;;;;;16.17;5.72;;;8.60;99.90;;;;;;5021893;28;20056;-81
2021/03/11 09:14:43;;;;;;;5.63;3.13;;;8.70;99.90;;;;;;5021386;28;20045;-80
2021/03/11 09:17:14;;;;;;;5.68;3.10;;;8.80;99.90;;;;;;5036702;28;20045;-81
2021/03/11 09:19:49;;;;;;;11.73;5.78;;;8.80;99.90;;;;;;5007154;28;20049;-80
2021/03/11 09:22:25;;;;;;;18.58;6.43;;;8.90;99.90;;;;;;5019147;28;20041;-80
2021/03/11 09:25:10;;;;;;;6.55;2.83;;;8.90;99.90;;;;;;5028223;28;20387;-79
2021/03/11 09:27:39;;;;;;;14.90;4.78;;;8.90;99.90;;;;;;5009728;28;20064;-80
2021/03/11 09:30:08;;;;;;;;;;;8.90;99.90;;;;;;5002977;28;20057;-80
2021/03/11 09:32:36;;;;;;;;;;;8.90;99.90;;;;;;5032009;28;19932;-80
2021/03/11 09:35:09;;;;;;;14.40;6.85;;;9.00;99.90;;;;;;5023226;28;19920;-80
2021/03/11 09:37:54;;;;;;;13.65;5.53;;;9.00;99.90;;;;;;5023013;28;20056;-80
2021/03/11 09:40:28;;;;;;;12.75;5.82;;;9.00;99.90;;;;;;5021362;28;20049;-79
2021/03/11 09:43:11;;;;;;;13.80;5.38;;;8.90;99.90;;;;;;5034456;28;20061;-80
2021/03/11 09:45:49;;;;;;;12.52;6.32;;;8.80;99.90;;;;;;5037109;28;20065;-81
2021/03/11 09:48:21;;;;;;;19.90;7.70;;;8.60;99.90;;;;;;5027309;28;20050;-81
2021/03/11 09:51:00;;;;;;;13.95;5.55;;;8.30;99.90;;;;;;5015421;28;20046;-85
2021/03/11 09:53:35;;;;;;;15.00;7.20;;;8.00;99.90;;;;;;5033176;28;20046;-84
2021/03/11 09:56:05;;;;;;;13.02;7.20;;;7.70;99.90;;;;;;5040501;28;20049;-84
2021/03/11 09:58:33;;;;;;;11.52;5.13;;;7.70;99.90;;;;;;5025783;28;20486;-80
2021/03/11 10:01:03;;;;;;;16.98;8.35;;;7.70;99.90;;;;;;5009537;28;20056;-83
2021/03/11 10:03:32;;;;;;;19.10;8.80;;;7.80;99.90;;;;;;5026403;28;20045;-86
2021/03/11 10:06:05;;;;;;;17.17;8.15;;;7.80;99.90;;;;;;5016840;28;20053;-86
2021/03/11 10:08:39;;;;;;;11.98;5.97;;;8.00;99.90;;;;;;5020087;28;20385;-85
2021/03/11 10:11:29;;;;;;;15.23;8.27;;;8.10;99.90;;;;;;5029114;28;20439;-87
2021/03/11 10:14:02;;;;;;;12.98;6.80;;;8.10;99.90;;;;;;5027920;28;20053;-84
2021/03/11 10:16:59;;;;;;;7.97;4.05;;;8.20;99.90;;;;;;5029535;28;20049;-85
2021/03/11 10:19:32;;;;;;;12.43;5.20;;;8.10;99.90;;;;;;5043517;28;20045;-86
2021/03/11 10:22:04;;;;;;;8.45;2.92;;;8.10;99.90;;;;;;5025949;28;20053;-85
2021/03/11 10:24:45;;;;;;;6.40;4.00;;;8.10;99.90;;;;;;5025391;28;20054;-86
2021/03/11 10:27:25;;;;;;;8.32;4.60;;;8.20;99.90;;;;;;5020729;28;20053;-88
2021/03/11 10:30:06;;;;;;;9.05;3.13;;;8.20;99.90;;;;;;5040689;28;20061;-84
2021/03/11 10:32:38;;;;;;;12.88;5.25;;;8.30;99.90;;;;;;5031495;28;20054;-85
2021/03/11 10:35:08;;;;;;;14.73;6.55;;;8.40;99.90;;;;;;5018423;28;20061;-87
2021/03/11 10:37:43;;;;;;;11.95;5.75;;;8.50;99.90;;;;;;5040720;28;20364;-81
2021/03/11 10:40:19;;;;;;;13.55;6.78;;;8.60;99.90;;;;;;5037570;28;20049;-85
2021/03/11 10:42:51;;;;;;;17.50;6.53;;;8.70;99.90;;;;;;5023311;28;20104;-86
2021/03/11 10:45:21;;;;;;;14.95;5.32;;;9.00;99.90;;;;;;5022461;28;20057;-84
2021/03/11 10:48:00;;;;;;;10.73;6.07;;;9.10;99.90;;;;;;5021822;28;20054;-84
2021/03/11 10:50:28;;;;;;;8.65;5.07;;;9.20;99.90;;;;;;5024376;28;20049;-80
2021/03/11 10:52:56;;;;;;;10.02;5.10;;;9.20;99.90;;;;;;5023943;28;20053;-83
2021/03/11 10:55:30;;;;;;;10.93;5.90;;;9.10;99.90;;;;;;5004547;28;20057;-82
2021/03/11 10:57:59;;;;;;;14.25;6.25;;;9.20;99.90;;;;;;5021264;28;20058;-85
2021/03/11 11:00:30;;;;;;;10.85;5.43;;;9.30;99.90;;;;;;5038414;28;20058;-86
2021/03/11 11:03:01;;;;;;;9.98;5.30;;;9.30;99.90;;;;;;5022391;28;20050;-86
2021/03/11 11:09:04;;;;;;;8.55;4.53;;;9.50;99.90;;;;;;4991935;28;20054;-86
2021/03/11 11:11:32;;;;;;;9.70;5.47;;;9.60;99.90;;;;;;5027186;28;20054;-85
2021/03/11 11:13:59;;;;;;;9.13;5.00;;;9.70;99.90;;;;;;5016548;28;20057;-84
2021/03/11 11:16:29;;;;;;;6.47;3.17;;;9.70;99.90;;;;;;5041984;28;20049;-83
2021/03/11 11:18:56;;;;;;;8.88;3.47;;;9.80;99.90;;;;;;5044765;28;20050;-85
2021/03/11 11:21:27;;;;;;;10.65;5.38;;;9.80;99.90;;;;;;5026270;28;20061;-86
2021/03/11 11:23:55;;;;;;;3.90;1.83;;;10.00;99.90;;;;;;5027330;28;20046;-84
2021/03/11 11:26:23;;;;;;;8.55;4.75;;;10.00;99.90;;;;;;5027293;28;20053;-83
2021/03/11 11:28:51;;;;;;;10.05;5.13;;;10.00;99.90;;;;;;5005011;28;20052;-86
2021/03/11 11:31:19;;;;;;;4.97;3.00;;;10.10;99.90;;;;;;5034177;28;20059;-87
2021/03/11 11:33:47;;;;;;;4.68;2.53;;;10.30;99.90;;;;;;5009330;28;20049;-84
2021/03/11 11:36:18;;;;;;;8.00;4.13;;;10.40;99.90;;;;;;5002233;28;20413;-80
2021/03/11 11:38:46;;;;;;;6.28;3.28;;;10.60;99.90;;;;;;5032056;28;20061;-82
2021/03/11 11:41:18;;;;;;;4.18;2.35;;;10.60;99.90;;;;;;5024792;28;20054;-82
2021/03/11 11:43:46;;;;;;;6.43;3.88;;;10.60;99.90;;;;;;5017542;28;20058;-82
2021/03/11 11:46:21;;;;;;;4.60;2.88;;;10.60;99.90;;;;;;4998394;28;20515;-85
2021/03/11 11:48:48;;;;;;;7.00;3.33;;;10.70;99.90;;;;;;4999337;28;20053;-84
2021/03/11 11:51:16;;;;;;;5.57;2.72;;;10.80;99.90;;;;;;5004157;28;20080;-85
2021/03/11 11:53:44;;;;;;;6.10;3.28;;;10.90;99.90;;;;;;5000481;28;20058;-83
2021/03/11 11:56:14;;;;;;;7.43;3.22;;;10.80;99.90;;;;;;4987004;28;20069;-87
2021/03/11 11:58:45;;;;;;;7.07;3.35;;;10.90;99.90;;;;;;5004604;28;20053;-87
2021/03/11 12:01:14;;;;;;;4.32;2.55;;;10.80;99.90;;;;;;4990464;28;20065;-86
2021/03/11 12:03:42;;;;;;;;;;;10.80;99.90;;;;;;5009195;28;20483;-84
2021/03/11 12:08:55;;;;;;;8.18;3.20;;;10.90;99.90;;;;;;4999939;28;20046;-84
2021/03/11 12:11:26;;;;;;;6.72;2.90;;;10.90;99.90;;;;;;5012360;28;20061;-83
2021/03/11 12:13:56;;;;;;;5.10;2.70;;;11.00;99.90;;;;;;5009789;28;20068;-84
2021/03/11 12:16:27;;;;;;;8.60;3.38;;;11.10;99.90;;;;;;5033582;28;20044;-87
2021/03/11 12:18:58;;;;;;;9.38;2.63;;;11.30;99.90;;;;;;5005810;28;20037;-86
2021/03/11 12:21:26;;;;;;;5.70;3.00;;;11.90;99.90;;;;;;5035060;28;20050;-86
2021/03/11 12:23:55;;;;;;;5.35;2.75;;;11.90;99.90;;;;;;5030958;28;20062;-87
2021/03/11 12:26:22;;;;;;;5.97;2.15;;;11.70;99.90;;;;;;4996147;28;20046;-86
2021/03/11 12:28:51;;;;;;;12.65;2.70;;;11.60;99.90;;;;;;5009736;28;20050;-85
2021/03/11 12:31:27;;;;;;;;;;;11.50;99.90;;;;;;5026160;28;20060;-87
2021/03/11 12:33:57;;;;;;;14.32;2.90;;;11.60;99.90;;;;;;5003578;28;19925;-87
2021/03/11 12:36:26;;;;;;;7.03;2.90;;;11.60;99.90;;;;;;4993218;28;20057;-85
2021/03/11 12:38:54;;;;;;;5.63;2.53;;;11.70;99.90;;;;;;4986159;28;20046;-86
2021/03/11 12:41:24;;;;;;;5.70;2.33;;;11.80;99.90;;;;;;5016892;28;20060;-88
2021/03/11 12:43:55;;;;;;;7.43;2.03;;;11.80;99.90;;;;;;5001483;28;20061;-83
2021/03/11 12:46:23;;;;;;;9.80;2.25;;;11.80;99.90;;;;;;5030774;28;20053;-84
2021/03/11 12:48:53;;;;;;;13.80;2.55;;;11.90;99.90;;;;;;5018897;28;20052;-86
2021/03/11 12:51:22;;;;;;;3.67;1.35;;;11.90;99.90;;;;;;5019006;28;20054;-84
2021/03/11 12:53:50;;;;;;;4.78;1.05;;;12.00;99.90;;;;;;5009167;28;20050;-84
2021/03/11 12:56:17;;;;;;;4.82;1.30;;;12.30;99.90;;;;;;5021337;28;20054;-84
2021/03/11 12:58:47;;;;;;;3.65;1.55;;;12.70;99.90;;;;;;5006469;28;20062;-87
2021/03/11 13:01:23;;;;;;;11.82;2.72;;;13.30;99.90;;;;;;5020756;28;20058;-82
2021/03/11 13:03:54;;;;;;;8.35;1.38;;;13.40;99.90;;;;;;5042627;28;20064;-83
2021/03/11 13:06:23;;;;;;;8.57;1.70;;;13.10;99.90;;;;;;5023119;28;20053;-84
2021/03/11 13:08:50;;;;;;;9.18;0.93;;;12.90;99.90;;;;;;5036154;28;20075;-86
2021/03/11 13:11:19;;;;;;;2.83;0.73;;;12.90;99.90;;;;;;5030359;28;20049;-85